Time;durP1;ratioP1;P1;durP2;ratioP2;P2;SDS_P1;SDS_P2;PMS_P1;PMS_P2;Temp;Humidity;BMP_temperature;BMP_pressure;BME280_temperature;BME280_humidity;BME280_pressure;Samples;Min_cycle;Max_cycle;Signal;HPM_P1;HPM_P2
2023/08/30 00:00:46;;;;;;;10.38;5.97;;;486.70;2380.80;;;;;;5028752;28;20043;-64
2023/08/30 00:03:12;;;;;;;10.85;7.18;;;486.70;2380.80;;;;;;5028695;28;20037;-65
2023/08/30 00:05:42;;;;;;;9.70;5.68;;;486.80;2380.80;;;;;;5028700;28;20037;-64
2023/08/30 00:08:08;;;;;;;7.10;5.10;;;486.80;2380.80;;;;;;5028614;28;20392;-67
2023/08/30 00:10:34;;;;;;;6.40;4.55;;;486.90;2380.80;;;;;;5028567;28;20017;-69
2023/08/30 00:12:59;;;;;;;8.40;5.10;;;487.00;2380.80;;;;;;5022536;28;20032;-68
2023/08/30 00:15:25;;;;;;;9.52;5.32;;;487.00;2380.80;;;;;;5026706;28;20022;-67
2023/08/30 00:17:54;;;;;;;9.25;4.00;;;486.90;2380.80;;;;;;5032817;28;20025;-72
2023/08/30 00:20:20;;;;;;;9.60;3.80;;;486.70;2380.80;;;;;;5032790;28;20036;-66
2023/08/30 00:22:47;;;;;;;13.52;4.43;;;486.70;2380.80;;;;;;5032462;28;20024;-63
2023/08/30 00:25:12;;;;;;;7.43;3.40;;;486.70;2380.80;;;;;;5032824;28;20029;-67
2023/08/30 00:27:38;;;;;;;6.82;3.38;;;486.70;2380.80;;;;;;5032483;28;20033;-65
2023/08/30 00:30:04;;;;;;;6.63;3.67;;;487.00;2380.80;;;;;;5033147;28;20053;-70
2023/08/30 00:32:30;;;;;;;9.60;4.40;;;486.90;2380.80;;;;;;5028871;28;20039;-63
2023/08/30 00:34:56;;;;;;;6.57;3.72;;;486.90;2380.80;;;;;;5022749;28;20108;-64
2023/08/30 00:37:21;;;;;;;5.35;3.38;;;486.90;2380.80;;;;;;5032693;28;20017;-64
2023/08/30 00:39:47;;;;;;;7.72;4.82;;;487.00;2380.80;;;;;;5032425;28;20021;-64
2023/08/30 00:42:13;;;;;;;8.23;4.70;;;487.00;2380.80;;;;;;5032135;28;20035;-67
2023/08/30 00:44:38;;;;;;;8.75;4.68;;;487.00;2380.80;;;;;;5032115;28;20048;-64
2023/08/30 00:47:04;;;;;;;8.68;5.13;;;487.00;2380.80;;;;;;5032699;28;20021;-66
2023/08/30 00:49:30;;;;;;;11.60;5.78;;;486.90;2380.80;;;;;;5032382;28;20489;-66
2023/08/30 00:52:02;;;;;;;6.82;4.72;;;487.00;2380.80;;;;;;5032084;28;20562;-65
2023/08/30 00:54:28;;;;;;;12.52;4.85;;;487.00;2380.80;;;;;;5032647;28;20025;-64
2023/08/30 00:56:54;;;;;;;9.57;4.65;;;487.10;2380.80;;;;;;5031971;28;20453;-62
2023/08/30 00:59:21;;;;;;;10.40;4.65;;;487.20;2380.80;;;;;;5031927;28;20499;-63
2023/08/30 01:01:48;;;;;;;6.78;4.38;;;487.30;2380.80;;;;;;5031814;28;20064;-68
2023/08/30 01:04:14;;;;;;;6.32;3.85;;;487.30;2380.80;;;;;;5027750;28;20033;-67
2023/08/30 01:06:41;;;;;;;9.02;5.07;;;512.00;2380.80;;;;;;5021919;28;20033;-71
2023/08/30 01:09:07;;;;;;;6.68;4.25;;;487.30;2380.80;;;;;;5025089;28;20507;-65
2023/08/30 01:12:11;;;;;;;8.25;4.40;;;487.20;2380.80;;;;;;5020788;28;20091;-65
2023/08/30 01:14:43;;;;;;;5.93;3.80;;;487.10;2380.80;;;;;;5021184;28;20041;-67
2023/08/30 01:17:14;;;;;;;7.00;3.90;;;487.00;2380.80;;;;;;5014368;28;20034;-66
2023/08/30 01:19:49;;;;;;;5.97;3.95;;;487.00;2380.80;;;;;;5024879;28;20064;-71
2023/08/30 01:22:29;;;;;;;8.85;3.78;;;486.90;2380.80;;;;;;5025079;28;20048;-63
2023/08/30 01:25:43;;;;;;;8.57;3.67;;;487.00;2380.80;;;;;;5019770;28;20480;-75
2023/08/30 01:28:10;;;;;;;6.80;3.35;;;487.20;2380.80;;;;;;5039134;28;20391;-71
2023/08/30 01:30:41;;;;;;;6.68;3.08;;;487.30;2380.80;;;;;;5038419;28;20037;-60
2023/08/30 01:33:08;;;;;;;11.20;3.38;;;512.10;2380.80;;;;;;5047363;28;20060;-62
2023/08/30 01:35:36;;;;;;;6.82;2.85;;;512.20;2380.80;;;;;;5047728;28;20048;-63
2023/08/30 01:38:04;;;;;;;7.13;3.38;;;512.20;2380.80;;;;;;5048586;28;20025;-62
2023/08/30 01:40:34;;;;;;;6.28;3.30;;;512.20;2380.80;;;;;;5047710;28;20566;-63
2023/08/30 01:43:01;;;;;;;6.25;3.35;;;487.30;2380.80;;;;;;5048056;28;20048;-69
2023/08/30 01:45:28;;;;;;;5.00;3.17;;;487.20;2380.80;;;;;;5048697;28;20128;-68
2023/08/30 01:47:57;;;;;;;6.15;3.28;;;487.10;2380.80;;;;;;5049217;28;20400;-62
2023/08/30 01:50:23;;;;;;;6.63;2.92;;;487.10;2380.80;;;;;;5049096;28;20505;-75
2023/08/30 01:52:50;;;;;;;7.07;2.95;;;487.00;2380.80;;;;;;5048583;28;20057;-62
2023/08/30 01:55:18;;;;;;;7.85;3.50;;;487.00;2380.80;;;;;;5048775;28;20429;-65
2023/08/30 01:57:43;;;;;;;5.50;2.72;;;487.10;2380.80;;;;;;5045181;28;20025;-63
2023/08/30 02:00:10;;;;;;;5.20;2.97;;;487.10;2380.80;;;;;;5027547;28;20028;-63
2023/08/30 02:02:36;;;;;;;6.80;3.72;;;487.10;2380.80;;;;;;5031271;28;20051;-62
2023/08/30 02:05:01;;;;;;;9.93;3.83;;;487.10;2380.80;;;;;;5030960;28;20080;-62
2023/08/30 02:07:59;;;;;;;8.10;3.50;;;487.00;2380.80;;;;;;5030827;28;20106;-62
2023/08/30 02:10:35;;;;;;;10.48;3.95;;;487.10;2380.80;;;;;;5030341;28;20033;-62
2023/08/30 02:13:03;;;;;;;8.93;2.88;;;487.10;2380.80;;;;;;5030978;28;20064;-63
2023/08/30 02:15:32;;;;;;;5.13;2.60;;;487.00;2380.80;;;;;;5030421;28;20036;-62
2023/08/30 02:17:58;;;;;;;5.05;2.67;;;487.00;2380.80;;;;;;5030674;28;20017;-63
2023/08/30 02:20:24;;;;;;;6.68;3.30;;;487.10;2380.80;;;;;;5030533;28;20148;-62
2023/08/30 02:22:50;;;;;;;6.53;2.90;;;487.10;2380.80;;;;;;5030370;28;20017;-63
2023/08/30 02:25:16;;;;;;;6.40;3.30;;;487.20;2380.80;;;;;;5030445;28;21051;-65
2023/08/30 02:27:41;;;;;;;7.20;3.28;;;487.30;2380.80;;;;;;5030119;28;20036;-65
2023/08/30 02:30:07;;;;;;;5.40;2.67;;;487.30;2380.80;;;;;;5029963;28;20030;-66
2023/08/30 02:32:33;;;;;;;10.13;3.30;;;487.20;2380.80;;;;;;5030810;28;20373;-68
2023/08/30 02:34:59;;;;;;;5.85;2.70;;;487.10;2380.80;;;;;;5029564;28;20087;-67
2023/08/30 02:37:25;;;;;;;4.70;2.95;;;487.10;2380.80;;;;;;5030287;28;20026;-68
2023/08/30 02:39:51;;;;;;;5.72;3.03;;;487.00;2380.80;;;;;;5030048;28;20022;-64
2023/08/30 02:42:17;;;;;;;8.95;3.58;;;487.00;2380.80;;;;;;5016703;28;20054;-67
2023/08/30 02:44:42;;;;;;;6.18;3.10;;;487.10;2380.80;;;;;;5029119;28;20065;-67
2023/08/30 02:47:08;;;;;;;9.35;5.28;;;487.10;2380.80;;;;;;5030480;28;20021;-65
2023/08/30 02:49:34;;;;;;;5.32;3.63;;;487.00;2380.80;;;;;;5030228;28;20025;-62
2023/08/30 02:52:00;;;;;;;7.30;3.83;;;487.10;2380.80;;;;;;5021381;28;20026;-64
2023/08/30 02:54:25;;;;;;;9.55;3.50;;;487.20;2380.80;;;;;;5026306;28;20113;-69
2023/08/30 02:56:51;;;;;;;6.22;3.63;;;487.20;2380.80;;;;;;5029758;28;20134;-66
2023/08/30 02:59:17;;;;;;;7.05;3.58;;;487.30;2380.80;;;;;;5029816;28;20033;-64
2023/08/30 03:01:43;;;;;;;7.75;4.00;;;487.20;2380.80;;;;;;5029962;28;20376;-66
2023/08/30 03:04:08;;;;;;;6.90;3.97;;;487.10;2380.80;;;;;;5029460;28;20041;-69
2023/08/30 03:06:34;;;;;;;5.72;3.83;;;487.00;2380.80;;;;;;5029912;28;20029;-64
2023/08/30 03:09:01;;;;;;;8.18;3.88;;;487.00;2380.80;;;;;;5029824;28;20380;-63
2023/08/30 03:11:26;;;;;;;7.15;3.80;;;486.90;2380.80;;;;;;5029490;28;20030;-68
2023/08/30 03:13:54;;;;;;;7.50;3.75;;;486.90;2380.80;;;;;;5029633;28;20040;-65
2023/08/30 03:16:20;;;;;;;8.07;3.72;;;486.80;2380.80;;;;;;5029579;28;20490;-66
2023/08/30 03:18:47;;;;;;;8.07;3.15;;;487.00;2380.80;;;;;;5029269;28;20496;-62
2023/08/30 03:21:13;;;;;;;5.82;3.30;;;487.00;2380.80;;;;;;5029627;28;20033;-67
2023/08/30 03:23:39;;;;;;;8.23;3.97;;;486.90;2380.80;;;;;;5026087;28;20034;-66
2023/08/30 03:26:09;;;;;;;6.18;3.58;;;487.00;2380.80;;;;;;5019610;28;20059;-66
2023/08/30 03:28:36;;;;;;;5.88;3.60;;;487.00;2380.80;;;;;;5026875;28;20021;-64
2023/08/30 03:31:01;;;;;;;6.97;3.65;;;486.80;2380.80;;;;;;5029623;28;20489;-68
2023/08/30 03:33:27;;;;;;;8.27;3.53;;;486.80;2380.80;;;;;;5029036;28;20013;-66
2023/08/30 03:35:53;;;;;;;5.15;3.10;;;486.80;2380.80;;;;;;5029649;28;20467;-65
2023/08/30 03:38:19;;;;;;;12.00;4.38;;;486.90;2380.80;;;;;;5015305;28;20522;-67
2023/08/30 03:40:44;;;;;;;4.95;3.30;;;486.70;2380.80;;;;;;5029278;28;20029;-67
2023/08/30 03:43:10;;;;;;;7.32;3.80;;;486.80;2380.80;;;;;;5028857;28;20052;-62
2023/08/30 03:45:36;;;;;;;8.30;4.30;;;486.80;2380.80;;;;;;5021891;28;20034;-62
2023/08/30 03:48:03;;;;;;;6.45;4.00;;;486.70;2380.80;;;;;;5016446;28;20029;-63
2023/08/30 03:50:29;;;;;;;6.78;4.22;;;486.50;2380.80;;;;;;5028854;28;20155;-63
2023/08/30 03:52:55;;;;;;;8.07;3.78;;;486.60;2380.80;;;;;;5027336;28;20017;-66
2023/08/30 03:55:22;;;;;;;9.32;4.13;;;486.60;2380.80;;;;;;5017855;28;20033;-64
2023/08/30 03:57:48;;;;;;;6.75;3.80;;;486.70;2380.80;;;;;;5029087;28;20562;-62
2023/08/30 04:00:14;;;;;;;7.28;3.45;;;486.80;2380.80;;;;;;5028911;28;20104;-65
2023/08/30 04:02:40;;;;;;;6.90;3.20;;;486.80;2380.80;;;;;;5028829;28;20372;-62
2023/08/30 04:05:08;;;;;;;7.22;3.67;;;486.80;2380.80;;;;;;5029068;28;20384;-64
2023/08/30 04:07:37;;;;;;;9.15;4.68;;;486.90;2380.80;;;;;;5029275;28;20480;-63
2023/08/30 04:10:06;;;;;;;9.02;3.95;;;486.80;2380.80;;;;;;5029165;28;20030;-63
2023/08/30 04:12:33;;;;;;;5.65;3.58;;;486.90;2380.80;;;;;;5028901;28;20028;-62
2023/08/30 04:14:59;;;;;;;7.20;3.83;;;486.80;2380.80;;;;;;5028710;28;20033;-69
2023/08/30 04:17:24;;;;;;;4.28;3.10;;;486.80;2380.80;;;;;;5028885;28;20022;-68
2023/08/30 04:19:53;;;;;;;8.85;3.58;;;486.80;2380.80;;;;;;5028640;28;20029;-62
2023/08/30 04:22:19;;;;;;;7.55;3.55;;;487.00;2380.80;;;;;;5028367;28;20155;-62
2023/08/30 04:24:46;;;;;;;8.93;4.68;;;486.90;2380.80;;;;;;5028744;28;20109;-63
2023/08/30 04:27:12;;;;;;;8.13;4.45;;;486.80;2380.80;;;;;;5028733;28;20392;-63
2023/08/30 04:29:37;;;;;;;7.40;4.45;;;486.70;2380.80;;;;;;5018749;28;20021;-66
2023/08/30 04:32:03;;;;;;;7.72;4.20;;;486.60;2380.80;;;;;;5028837;28;20021;-63
2023/08/30 04:34:30;;;;;;;9.95;4.43;;;486.40;2380.80;;;;;;5022261;28;20471;-69
2023/08/30 04:36:56;;;;;;;6.53;4.60;;;461.70;2380.80;;;;;;5028728;28;20028;-67
2023/08/30 04:39:22;;;;;;;9.68;4.63;;;461.70;2380.80;;;;;;5029030;28;20518;-65
2023/08/30 04:41:48;;;;;;;8.10;3.42;;;486.40;2380.80;;;;;;5027944;28;20061;-64
2023/08/30 04:44:13;;;;;;;6.68;3.83;;;486.40;2380.80;;;;;;5028373;28;20443;-67
2023/08/30 04:46:39;;;;;;;6.80;2.80;;;486.60;2380.80;;;;;;5023077;28;20124;-63
2023/08/30 04:49:05;;;;;;;4.53;2.20;;;486.80;2380.80;;;;;;5028771;28;20072;-62
2023/08/30 04:51:30;;;;;;;4.95;2.15;;;487.00;2380.80;;;;;;5022272;28;20087;-62
2023/08/30 04:53:57;;;;;;;6.72;2.50;;;487.10;2380.80;;;;;;5019475;28;20495;-65
2023/08/30 04:56:23;;;;;;;5.93;2.85;;;487.20;2380.80;;;;;;5021568;28;20032;-63
2023/08/30 04:58:50;;;;;;;6.57;2.97;;;487.30;2380.80;;;;;;5019790;28;20120;-66
2023/08/30 05:01:15;;;;;;;6.05;3.80;;;487.20;2380.80;;;;;;5017491;28;20021;-62
2023/08/30 05:03:41;;;;;;;8.98;4.20;;;487.10;2380.80;;;;;;5031948;28;20026;-63
2023/08/30 05:06:07;;;;;;;10.90;4.55;;;487.10;2380.80;;;;;;5031082;28;20041;-64
2023/08/30 05:08:33;;;;;;;11.65;4.65;;;487.10;2380.80;;;;;;5032090;28;20029;-65
2023/08/30 05:10:59;;;;;;;6.68;3.65;;;487.20;2380.80;;;;;;5031914;28;20029;-68
2023/08/30 05:13:24;;;;;;;9.40;3.17;;;487.30;2380.80;;;;;;5031386;28;20033;-64
2023/08/30 05:15:50;;;;;;;4.85;2.95;;;512.10;2380.80;;;;;;5019420;28;20105;-66
2023/08/30 05:18:17;;;;;;;8.68;2.80;;;512.20;2380.80;;;;;;5031684;28;20037;-63
2023/08/30 05:20:42;;;;;;;7.03;2.72;;;512.50;2380.80;;;;;;5031766;28;20479;-63
2023/08/30 05:23:08;;;;;;;9.48;4.43;;;512.70;2380.80;;;;;;5031817;28;20099;-66
2023/08/30 05:25:34;;;;;;;9.05;4.88;;;512.70;2380.80;;;;;;5032016;28;20495;-61
2023/08/30 05:27:59;;;;;;;9.15;4.57;;;512.30;2380.80;;;;;;5031754;28;20034;-62
2023/08/30 05:30:25;;;;;;;11.65;4.80;;;512.40;2380.80;;;;;;5032117;28;20373;-61
2023/08/30 05:32:51;;;;;;;8.30;4.93;;;512.50;2380.80;;;;;;5031156;28;20143;-62
2023/08/30 05:35:16;;;;;;;8.32;3.90;;;512.50;2380.80;;;;;;5030916;28;20040;-64
2023/08/30 05:37:42;;;;;;;10.10;3.22;;;512.40;2380.80;;;;;;5031138;28;20021;-62
2023/08/30 05:40:08;;;;;;;11.30;3.55;;;512.50;2380.80;;;;;;5031736;28;20137;-62
2023/08/30 05:42:34;;;;;;;9.30;3.92;;;512.50;2380.80;;;;;;5031063;28;20403;-63
2023/08/30 05:44:59;;;;;;;6.60;3.95;;;512.40;2380.80;;;;;;5031348;28;20041;-63
2023/08/30 05:47:25;;;;;;;7.45;3.60;;;512.00;2380.80;;;;;;5031351;28;20426;-63
2023/08/30 05:49:51;;;;;;;7.03;4.22;;;487.30;2380.80;;;;;;5031393;28;20113;-61
2023/08/30 05:52:18;;;;;;;8.90;3.70;;;512.10;2380.80;;;;;;5030925;28;20075;-72
2023/08/30 05:54:44;;;;;;;17.40;4.45;;;512.20;2380.80;;;;;;5031227;28;20017;-72
2023/08/30 05:57:10;;;;;;;7.45;3.45;;;512.20;2380.80;;;;;;5030806;28;20021;-72
2023/08/30 05:59:36;;;;;;;7.22;2.75;;;512.50;2380.80;;;;;;5031080;28;20714;-68
2023/08/30 06:02:02;;;;;;;11.52;6.68;;;512.70;2380.80;;;;;;5030380;28;20030;-72
2023/08/30 06:04:27;;;;;;;19.20;7.03;;;512.70;2380.80;;;;;;5030526;28;20045;-72
2023/08/30 06:06:53;;;;;;;8.82;5.55;;;512.60;2380.80;;;;;;5031036;28;20087;-72
2023/08/30 06:09:19;;;;;;;10.52;4.43;;;512.60;2380.80;;;;;;5030630;28;20030;-72
2023/08/30 06:11:44;;;;;;;10.25;5.22;;;512.80;2380.80;;;;;;5030736;28;20053;-72
2023/08/30 06:14:10;;;;;;;9.38;4.97;;;512.90;2380.80;;;;;;5030476;28;20029;-73
2023/08/30 06:16:36;;;;;;;6.53;3.97;;;537.70;2406.40;;;;;;5031251;28;20029;-70
2023/08/30 06:19:02;;;;;;;6.13;3.75;;;537.70;2406.40;;;;;;5029987;28;20120;-72
2023/08/30 06:21:28;;;;;;;4.15;2.90;;;537.90;2406.40;;;;;;5030532;28;20483;-73
2023/08/30 06:23:53;;;;;;;6.65;2.80;;;538.00;2406.40;;;;;;5014538;28;20049;-73
2023/08/30 06:26:19;;;;;;;4.15;2.67;;;538.10;2406.40;;;;;;5019819;28;20037;-72
2023/08/30 06:28:45;;;;;;;7.32;3.42;;;538.40;2406.40;;;;;;5020699;28;20025;-72
2023/08/30 06:31:11;;;;;;;5.05;3.03;;;538.50;2406.40;;;;;;5030461;28;20036;-73
2023/08/30 06:33:38;;;;;;;9.43;3.80;;;563.20;2432.00;;;;;;5011086;28;20088;-74
2023/08/30 06:36:04;;;;;;;4.38;2.85;;;563.30;2432.00;;;;;;5016715;28;20036;-73
2023/08/30 06:38:30;;;;;;;10.98;3.20;;;563.30;2432.00;;;;;;5030091;28;20421;-73
2023/08/30 06:40:58;;;;;;;7.63;2.90;;;563.40;2432.00;;;;;;5030327;28;20025;-72
2023/08/30 06:43:24;;;;;;;6.55;3.17;;;563.40;2432.00;;;;;;5029424;28;20050;-73
2023/08/30 06:45:50;;;;;;;7.45;4.00;;;563.40;2432.00;;;;;;5029712;28;20064;-73
2023/08/30 06:48:15;;;;;;;5.72;3.35;;;563.40;2432.00;;;;;;5030410;28;20010;-73
2023/08/30 06:50:41;;;;;;;6.07;3.50;;;563.60;2432.00;;;;;;5030289;28;20044;-74
2023/08/30 06:53:07;;;;;;;5.82;3.22;;;563.60;2432.00;;;;;;5029530;28;20021;-74
2023/08/30 06:55:35;;;;;;;9.60;4.10;;;563.60;2432.00;;;;;;5030226;28;20092;-73
2023/08/30 06:58:01;;;;;;;5.18;3.63;;;563.50;2432.00;;;;;;5029887;28;20026;-73
2023/08/30 07:00:27;;;;;;;7.93;4.88;;;563.60;2432.00;;;;;;5029614;28;20022;-74
2023/08/30 07:02:52;;;;;;;10.27;5.47;;;563.40;2432.00;;;;;;5029706;28;20026;-73
2023/08/30 07:05:18;;;;;;;10.57;5.10;;;563.50;2432.00;;;;;;5029482;28;20030;-73
2023/08/30 07:07:44;;;;;;;11.02;4.95;;;563.40;2432.00;;;;;;5029748;28;20010;-74
2023/08/30 07:10:09;;;;;;;8.68;4.95;;;563.70;2432.00;;;;;;5029958;28;20038;-74
2023/08/30 07:12:35;;;;;;;9.93;4.10;;;563.80;2432.00;;;;;;5029756;28;20028;-74
2023/08/30 07:15:03;;;;;;;9.70;3.80;;;564.00;2432.00;;;;;;5029597;28;20037;-73
2023/08/30 07:17:28;;;;;;;4.22;2.83;;;564.00;2432.00;;;;;;5028527;28;20388;-73
2023/08/30 07:19:54;;;;;;;5.22;2.70;;;564.00;2432.00;;;;;;5029926;28;20033;-74
2023/08/30 07:22:20;;;;;;;8.45;3.42;;;563.80;2432.00;;;;;;5028302;28;20056;-73
2023/08/30 07:24:46;;;;;;;11.73;4.80;;;563.70;2432.00;;;;;;5029183;28;20039;-73
2023/08/30 07:27:14;;;;;;;13.93;4.07;;;563.30;2432.00;;;;;;5029128;28;20021;-73
2023/08/30 07:29:40;;;;;;;9.30;4.55;;;538.50;2406.40;;;;;;5028425;28;20064;-74
2023/08/30 07:32:07;;;;;;;7.00;3.63;;;538.50;2406.40;;;;;;5029199;28;20427;-73
2023/08/30 07:34:33;;;;;;;7.38;4.18;;;538.40;2406.40;;;;;;5029456;28;20053;-73
2023/08/30 07:36:58;;;;;;;7.90;3.95;;;563.40;2432.00;;;;;;5028935;28;20064;-74
2023/08/30 07:39:24;;;;;;;9.70;4.13;;;563.60;2432.00;;;;;;5029199;28;20079;-73
2023/08/30 07:41:50;;;;;;;6.30;3.90;;;563.90;2432.00;;;;;;5028298;28;20022;-73
2023/08/30 07:44:16;;;;;;;11.98;4.00;;;564.00;2432.00;;;;;;5029162;28;20060;-73
2023/08/30 07:46:42;;;;;;;5.95;3.25;;;564.10;2432.00;;;;;;5029030;28;20017;-73
2023/08/30 07:49:07;;;;;;;7.82;3.25;;;589.30;2432.00;;;;;;5029100;28;20026;-73
2023/08/30 07:51:33;;;;;;;6.93;3.00;;;614.80;2432.00;;;;;;5029385;28;20075;-73
2023/08/30 07:53:59;;;;;;;7.60;3.15;;;614.70;2355.20;;;;;;5029244;28;20057;-73
2023/08/30 07:56:25;;;;;;;6.32;3.42;;;614.80;2329.60;;;;;;5028662;28;20026;-73
2023/08/30 07:58:51;;;;;;;6.35;3.08;;;614.80;2252.80;;;;;;5028837;28;20464;-73
2023/08/30 08:01:17;;;;;;;11.15;4.95;;;615.00;2252.80;;;;;;5028602;28;20055;-74
2023/08/30 08:03:43;;;;;;;7.57;4.55;;;;;;;;;;5029120;28;20112;-73
2023/08/30 08:06:08;;;;;;;7.53;4.10;;;640.80;2124.80;;;;;;5028565;28;20044;-72
2023/08/30 08:08:34;;;;;;;6.90;3.65;;;640.70;2124.80;;;;;;5029209;28;20029;-73
2023/08/30 08:11:00;;;;;;;6.15;3.30;;;;;;;;;;5014306;28;20104;-73
2023/08/30 08:13:26;;;;;;;6.15;3.55;;;691.60;1945.60;;;;;;5028842;28;20032;-73
2023/08/30 08:15:51;;;;;;;8.20;3.40;;;691.50;1945.60;;;;;;5028765;28;20100;-74
2023/08/30 08:18:17;;;;;;;6.60;3.42;;;691.60;1920.00;;;;;;5029234;28;20029;-74
2023/08/30 08:20:43;;;;;;;5.53;3.65;;;691.70;1894.40;;;;;;5028746;28;20021;-74
2023/08/30 08:23:09;;;;;;;5.55;3.58;;;691.90;1920.00;;;;;;5028507;28;20044;-75
2023/08/30 08:25:34;;;;;;;6.43;3.63;;;716.80;1971.20;;;;;;5028196;28;20033;-74
2023/08/30 08:28:00;;;;;;;5.70;3.38;;;691.90;1894.40;;;;;;5028768;28;20521;-74
2023/08/30 08:30:26;;;;;;;8.35;3.90;;;691.70;1894.40;;;;;;5028728;28;20051;-74
2023/08/30 08:32:51;;;;;;;9.23;5.68;;;691.60;2048.00;;;;;;5029114;28;20029;-73
2023/08/30 08:35:17;;;;;;;12.57;6.30;;;691.80;2099.20;;;;;;5013412;28;20109;-75
2023/08/30 08:37:43;;;;;;;8.23;5.82;;;691.60;2150.40;;;;;;5025485;28;20021;-74
2023/08/30 08:40:09;;;;;;;10.88;5.90;;;717.60;2073.60;;;;;;5032431;28;20467;-74
2023/08/30 08:42:36;;;;;;;10.60;5.70;;;742.50;2048.00;;;;;;5032331;28;20104;-75
2023/08/30 08:45:05;;;;;;;6.53;5.85;;;794.50;1868.80;;;;;;5032222;28;20033;-75
2023/08/30 08:47:31;;;;;;;8.00;5.97;;;794.20;1868.80;;;;;;5032422;28;20067;-74
2023/08/30 08:49:58;;;;;;;11.10;5.53;;;743.10;1996.80;;;;;;5026173;28;20030;-75
2023/08/30 08:52:24;;;;;;;7.20;5.25;;;717.70;2048.00;;;;;;5026250;28;20487;-74
2023/08/30 08:54:51;;;;;;;10.77;5.28;;;717.20;2073.60;;;;;;5032110;28;20030;-74
2023/08/30 08:57:18;;;;;;;7.70;5.03;;;716.80;2099.20;;;;;;5032111;28;20094;-76
2023/08/30 08:59:44;;;;;;;9.10;4.82;;;691.90;1996.80;;;;;;5032008;28;20013;-76
2023/08/30 09:02:13;;;;;;;5.10;3.65;;;691.90;1996.80;;;;;;5031786;28;20036;-72
2023/08/30 09:04:39;;;;;;;6.10;3.65;;;692.00;1894.40;;;;;;5032023;28;20034;-72
2023/08/30 09:07:05;;;;;;;7.28;3.53;;;691.40;1894.40;;;;;;5030915;28;20042;-75
2023/08/30 09:09:31;;;;;;;4.95;3.60;;;666.50;1894.40;;;;;;5029887;28;20018;-75
2023/08/30 09:11:56;;;;;;;5.93;3.67;;;691.40;1868.80;;;;;;5030289;28;20041;-73
2023/08/30 09:14:22;;;;;;;10.10;4.22;;;691.40;1843.20;;;;;;5030500;28;20033;-74
2023/08/30 09:16:58;;;;;;;12.23;4.65;;;691.40;1894.40;;;;;;5030547;28;20476;-74
2023/08/30 09:19:24;;;;;;;6.30;4.15;;;691.70;1945.60;;;;;;5030187;28;20029;-73
2023/08/30 09:21:58;;;;;;;9.43;4.28;;;691.90;1920.00;;;;;;5029875;28;20534;-72
2023/08/30 09:24:24;;;;;;;6.88;4.20;;;717.00;1868.80;;;;;;5030061;28;20121;-73
2023/08/30 09:26:52;;;;;;;5.60;3.70;;;717.00;1868.80;;;;;;5030137;28;20703;-72
2023/08/30 09:29:19;;;;;;;7.30;4.32;;;716.90;1817.60;;;;;;5030020;28;20030;-73
2023/08/30 09:31:46;;;;;;;9.90;4.45;;;717.10;1843.20;;;;;;5030041;28;20017;-74
2023/08/30 09:34:12;;;;;;;6.93;3.85;;;717.50;1817.60;;;;;;5030280;28;20021;-73
2023/08/30 09:36:42;;;;;;;7.90;4.10;;;717.70;1792.00;;;;;;5029886;28;20021;-74
2023/08/30 09:39:12;;;;;;;5.32;3.60;;;742.50;1792.00;;;;;;5029299;28;20104;-75
2023/08/30 09:41:41;;;;;;;6.93;3.67;;;742.50;1766.40;;;;;;5030053;28;20025;-74
2023/08/30 09:44:13;;;;;;;6.60;3.58;;;742.50;1766.40;;;;;;5028907;28;20049;-74
2023/08/30 09:46:46;;;;;;;6.38;3.63;;;742.70;1766.40;;;;;;5029334;28;20028;-74
2023/08/30 09:49:13;;;;;;;16.13;5.25;;;742.80;1664.00;;;;;;5029774;28;20404;-73
2023/08/30 09:51:43;;;;;;;5.95;4.03;;;743.00;1715.20;;;;;;5029527;28;20529;-74
2023/08/30 09:54:19;;;;;;;7.47;4.28;;;742.50;1664.00;;;;;;5029732;28;20499;-75
2023/08/30 09:56:46;;;;;;;7.32;4.25;;;742.50;1740.80;;;;;;5029344;28;20049;-74
2023/08/30 09:59:14;;;;;;;10.27;3.78;;;742.70;1766.40;;;;;;5029467;28;20496;-73
2023/08/30 10:01:41;;;;;;;6.22;3.90;;;716.90;1766.40;;;;;;5029126;28;20022;-75
2023/08/30 10:04:11;;;;;;;7.10;3.72;;;717.30;1740.80;;;;;;5023543;28;20062;-73
2023/08/30 10:06:38;;;;;;;39.17;33.42;;;742.40;1792.00;;;;;;5029084;28;20027;-74
2023/08/30 10:09:07;;;;;;;8.75;4.18;;;742.50;1740.80;;;;;;5029432;28;20026;-74
2023/08/30 10:11:37;;;;;;;5.57;3.75;;;717.60;1740.80;;;;;;5029357;28;20021;-74
2023/08/30 10:14:07;;;;;;;5.78;4.25;;;742.40;1715.20;;;;;;5029153;28;20037;-74
2023/08/30 10:16:47;;;;;;;4.28;3.20;;;717.40;1689.60;;;;;;5027102;28;20045;-73
2023/08/30 10:19:27;;;;;;;7.00;3.75;;;716.90;1715.20;;;;;;5025224;28;20041;-73
2023/08/30 10:22:04;;;;;;;5.35;3.78;;;716.90;1766.40;;;;;;5025208;28;20099;-73
2023/08/30 10:24:57;;;;;;;7.68;4.05;;;717.10;1766.40;;;;;;5028353;28;20037;-74
2023/08/30 10:27:25;;;;;;;6.28;4.35;;;717.00;1689.60;;;;;;5021720;28;20045;-73
2023/08/30 10:29:51;;;;;;;7.10;3.85;;;717.00;1689.60;;;;;;5025018;28;20026;-73
2023/08/30 10:32:23;;;;;;;4.47;3.45;;;717.40;1664.00;;;;;;5028590;28;20029;-73
2023/08/30 10:34:51;;;;;;;6.82;3.78;;;717.70;1664.00;;;;;;5028751;28;20026;-74
2023/08/30 10:37:25;;;;;;;4.53;3.30;;;742.40;1689.60;;;;;;5028736;28;20021;-74
2023/08/30 10:39:51;;;;;;;4.38;2.95;;;717.40;1638.40;;;;;;5027790;28;20029;-73
2023/08/30 10:42:22;;;;;;;5.43;2.72;;;717.70;1587.20;;;;;;5027558;28;20571;-74
2023/08/30 10:45:04;;;;;;;5.78;3.17;;;742.80;1536.00;;;;;;5027530;28;20091;-74
2023/08/30 10:47:37;;;;;;;4.03;2.70;;;743.00;1510.40;;;;;;5027935;28;20472;-75
2023/08/30 10:50:09;;;;;;;4.75;3.10;;;743.00;1510.40;;;;;;5028209;28;20107;-73
2023/08/30 10:52:35;;;;;;;3.83;2.58;;;742.60;1536.00;;;;;;5027897;28;20013;-74
2023/08/30 10:55:14;;;;;;;4.80;3.40;;;742.50;1536.00;;;;;;5028359;28;20091;-74
2023/08/30 10:57:45;;;;;;;4.05;3.15;;;742.70;1587.20;;;;;;5027311;28;20025;-73
2023/08/30 11:00:17;;;;;;;3.35;2.45;;;742.80;1587.20;;;;;;5027468;28;20487;-74
2023/08/30 11:02:46;;;;;;;3.15;2.65;;;743.10;1561.60;;;;;;5027061;28;20048;-74
2023/08/30 11:05:12;;;;;;;4.72;3.10;;;743.20;1484.80;;;;;;5026760;28;20388;-73
2023/08/30 11:07:38;;;;;;;3.92;2.78;;;743.30;1459.20;;;;;;5027194;28;20036;-74
2023/08/30 11:10:08;;;;;;;5.63;2.63;;;743.30;1484.80;;;;;;5027769;28;20025;-74
2023/08/30 11:12:35;;;;;;;4.95;2.92;;;743.30;1484.80;;;;;;5027594;28;20029;-74
2023/08/30 11:15:02;;;;;;;4.47;2.58;;;743.30;1459.20;;;;;;5027341;28;20574;-74
2023/08/30 11:17:28;;;;;;;6.38;2.88;;;768.10;1510.40;;;;;;5026929;28;20025;-76
2023/08/30 11:20:05;;;;;;;4.60;2.92;;;768.20;1459.20;;;;;;5026927;28;20037;-74
2023/08/30 11:22:31;;;;;;;4.50;3.13;;;743.10;1459.20;;;;;;5026925;28;20021;-74
2023/08/30 11:24:56;;;;;;;5.75;3.22;;;768.20;1459.20;;;;;;5026530;28;20065;-74
2023/08/30 11:27:22;;;;;;;3.75;2.88;;;768.20;1459.20;;;;;;5019424;28;20065;-74
2023/08/30 11:29:48;;;;;;;4.55;2.50;;;768.30;1484.80;;;;;;5024046;28;20050;-74
2023/08/30 11:32:13;;;;;;;21.52;18.90;;;768.30;1484.80;;;;;;5025538;28;20379;-75
2023/08/30 11:34:39;;;;;;;4.93;3.53;;;768.40;1459.20;;;;;;5022096;28;20026;-75
2023/08/30 11:37:05;;;;;;;5.10;2.88;;;768.40;1484.80;;;;;;5026588;28;20447;-76
2023/08/30 11:39:31;;;;;;;6.22;3.17;;;768.20;1459.20;;;;;;5026795;28;20053;-73
2023/08/30 11:41:57;;;;;;;3.72;2.80;;;768.40;1484.80;;;;;;5026699;28;20467;-75
2023/08/30 11:44:29;;;;;;;5.10;3.25;;;768.40;1459.20;;;;;;5027074;28;20039;-75
2023/08/30 11:47:01;;;;;;;4.30;2.70;;;768.40;1510.40;;;;;;5026752;28;20490;-74
2023/08/30 11:49:30;;;;;;;4.38;2.90;;;768.40;1484.80;;;;;;5025398;28;20029;-76
2023/08/30 11:51:57;;;;;;;3.60;2.67;;;768.40;1484.80;;;;;;5026987;28;20026;-75
2023/08/30 11:54:26;;;;;;;4.65;3.13;;;768.50;1510.40;;;;;;5026800;28;20029;-76
2023/08/30 11:56:52;;;;;;;7.00;2.95;;;768.40;1510.40;;;;;;5025090;28;20032;-75
2023/08/30 11:59:22;;;;;;;6.53;2.65;;;768.40;1433.60;;;;;;5025760;28;20029;-76
2023/08/30 12:01:52;;;;;;;3.95;3.05;;;743.10;1510.40;;;;;;5025986;28;20048;-72
2023/08/30 12:04:18;;;;;;;5.70;2.63;;;742.80;1510.40;;;;;;5025395;28;20025;-65
2023/08/30 12:06:53;;;;;;;3.63;2.58;;;742.80;1510.40;;;;;;5026638;28;20116;-68
2023/08/30 12:09:22;;;;;;;5.75;3.15;;;742.80;1536.00;;;;;;5026161;28;20496;-72
2023/08/30 12:11:49;;;;;;;5.85;2.70;;;742.80;1536.00;;;;;;5026641;28;20052;-73
2023/08/30 12:14:15;;;;;;;6.18;3.30;;;742.80;1561.60;;;;;;5022102;28;20030;-73
2023/08/30 12:16:41;;;;;;;3.92;2.97;;;742.90;1536.00;;;;;;5015271;28;20103;-73